Time;durP1;ratioP1;P1;durP2;ratioP2;P2;SDS_P1;SDS_P2;PMS_P1;PMS_P2;Temp;Humidity;BMP_temperature;BMP_pressure;BME280_temperature;BME280_humidity;BME280_pressure;Samples;Min_cycle;Max_cycle;Signal;HPM_P1;HPM_P2
2022/05/10 00:00:18;;;;;;;19.73;8.55;;;12.10;99.90;;;;;;5005477;28;20046;-81
2022/05/10 00:02:50;;;;;;;17.77;7.65;;;12.10;99.90;;;;;;5038747;28;20049;-81
2022/05/10 00:05:18;;;;;;;18.92;6.93;;;12.10;99.90;;;;;;5007269;28;20084;-80
2022/05/10 00:07:43;;;;;;;17.30;7.40;;;12.10;99.90;;;;;;5039337;28;20088;-81
2022/05/10 00:10:10;;;;;;;16.05;7.18;;;12.00;99.90;;;;;;5037957;28;20803;-81
2022/05/10 00:12:36;;;;;;;21.00;7.53;;;12.10;99.90;;;;;;5039213;28;20535;-81
2022/05/10 00:15:03;;;;;;;19.45;8.02;;;11.90;99.90;;;;;;5037699;28;20042;-81
2022/05/10 00:17:34;;;;;;;18.50;8.02;;;11.90;99.90;;;;;;5038403;28;20160;-81
2022/05/10 00:20:00;;;;;;;18.92;8.25;;;11.90;99.90;;;;;;5038698;28;20049;-80
2022/05/10 00:22:25;;;;;;;16.00;7.78;;;11.80;99.90;;;;;;5006524;28;20038;-81
2022/05/10 00:24:51;;;;;;;13.85;7.90;;;12.00;99.90;;;;;;5038367;28;20049;-81
2022/05/10 00:27:17;;;;;;;18.15;8.35;;;11.90;99.90;;;;;;5007145;28;20050;-81
2022/05/10 00:29:43;;;;;;;16.67;8.40;;;11.90;99.90;;;;;;5038329;28;20085;-80
2022/05/10 00:32:09;;;;;;;19.55;7.68;;;11.90;99.90;;;;;;5039233;28;20088;-80
2022/05/10 00:34:36;;;;;;;21.85;7.80;;;11.80;99.90;;;;;;5042430;28;20450;-80
2022/05/10 00:37:02;;;;;;;18.98;7.68;;;11.80;99.90;;;;;;5041935;28;20046;-80
2022/05/10 00:39:28;;;;;;;16.55;8.18;;;11.80;99.90;;;;;;5042440;28;20050;-80
2022/05/10 00:42:12;;;;;;;18.35;7.80;;;11.90;99.90;;;;;;5042204;28;20172;-80
2022/05/10 00:44:49;;;;;;;22.70;7.47;;;11.90;99.90;;;;;;5041261;28;20056;-80
2022/05/10 00:47:22;;;;;;;18.52;7.13;;;12.00;99.90;;;;;;5042520;28;20060;-80
2022/05/10 00:49:53;;;;;;;18.65;7.35;;;12.00;99.90;;;;;;5041868;28;20045;-79
2022/05/10 00:52:32;;;;;;;18.60;7.55;;;12.00;99.90;;;;;;5042270;28;20046;-80
2022/05/10 00:55:08;;;;;;;18.30;6.82;;;12.00;99.90;;;;;;5025346;28;20132;-80
2022/05/10 00:57:43;;;;;;;14.50;7.25;;;12.00;99.90;;;;;;5010064;28;20394;-80
2022/05/10 01:00:10;;;;;;;16.17;7.18;;;12.00;99.90;;;;;;5040992;28;20049;-80
2022/05/10 01:02:36;;;;;;;14.25;6.93;;;11.90;99.90;;;;;;5042276;28;20045;-80
2022/05/10 01:05:16;;;;;;;22.08;7.63;;;11.90;99.90;;;;;;5041194;28;20516;-80
2022/05/10 01:07:52;;;;;;;20.70;7.43;;;11.80;99.90;;;;;;5042507;28;20053;-80
2022/05/10 01:10:27;;;;;;;18.75;7.60;;;11.80;99.90;;;;;;5042096;28;20037;-80
2022/05/10 01:13:02;;;;;;;17.52;7.38;;;11.80;99.90;;;;;;5009411;28;20056;-80
2022/05/10 01:15:28;;;;;;;13.38;6.53;;;11.80;99.90;;;;;;5040895;28;20501;-80
2022/05/10 01:17:57;;;;;;;16.50;6.63;;;11.80;99.90;;;;;;5041628;28;20042;-80
2022/05/10 01:20:36;;;;;;;18.13;6.97;;;11.90;99.90;;;;;;5009724;28;20537;-80
2022/05/10 01:23:42;;;;;;;16.60;6.80;;;11.80;99.90;;;;;;5042215;28;20042;-80
2022/05/10 01:26:39;;;;;;;20.08;7.82;;;11.70;99.90;;;;;;5007454;28;20061;-80
2022/05/10 01:29:12;;;;;;;18.02;7.70;;;11.60;99.90;;;;;;5009545;28;20058;-81
2022/05/10 01:31:45;;;;;;;16.63;6.53;;;11.60;99.90;;;;;;5040951;28;20500;-80
2022/05/10 01:34:14;;;;;;;;;;;11.60;99.90;;;;;;5008692;28;20076;-81
2022/05/10 01:36:50;;;;;;;14.52;6.57;;;11.70;99.90;;;;;;5041316;28;19921;-80
2022/05/10 01:39:24;;;;;;;17.27;6.35;;;11.80;99.90;;;;;;5008589;28;20056;-80
2022/05/10 01:41:59;;;;;;;14.98;6.03;;;11.70;99.90;;;;;;5008161;28;20224;-80
2022/05/10 01:44:44;;;;;;;12.90;6.07;;;11.70;99.90;;;;;;5040924;28;20133;-81
2022/05/10 01:47:19;;;;;;;15.30;6.07;;;11.80;99.90;;;;;;5007217;28;20056;-81
2022/05/10 01:49:50;;;;;;;19.05;6.78;;;11.80;99.90;;;;;;5007671;28;20057;-80
2022/05/10 01:52:24;;;;;;;14.43;5.85;;;11.90;99.90;;;;;;5008695;28;20049;-80
2022/05/10 01:55:00;;;;;;;16.38;6.03;;;11.80;99.90;;;;;;5007002;28;20092;-80
2022/05/10 01:57:27;;;;;;;15.93;6.88;;;11.80;99.90;;;;;;5007771;28;20049;-80
2022/05/10 02:00:00;;;;;;;12.25;6.00;;;11.90;99.90;;;;;;5007531;28;20089;-80
2022/05/10 02:02:27;;;;;;;12.68;5.50;;;11.80;99.90;;;;;;5007666;28;20404;-80
2022/05/10 02:04:57;;;;;;;16.02;6.07;;;11.80;99.90;;;;;;5007261;28;20050;-79
2022/05/10 02:07:26;;;;;;;13.63;5.85;;;11.70;99.90;;;;;;5041162;28;20046;-80
2022/05/10 02:10:02;;;;;;;12.77;5.60;;;11.80;99.90;;;;;;5039696;28;20104;-80
2022/05/10 02:12:39;;;;;;;19.27;6.50;;;11.70;99.90;;;;;;5007886;28;20056;-80
2022/05/10 02:15:20;;;;;;;13.20;6.13;;;11.80;99.90;;;;;;5007945;28;20122;-80
2022/05/10 02:17:53;;;;;;;12.70;6.35;;;11.80;99.90;;;;;;5009107;28;20122;-80
2022/05/10 02:20:24;;;;;;;12.75;5.28;;;11.80;99.90;;;;;;5040524;28;20053;-79
2022/05/10 02:22:59;;;;;;;17.10;5.90;;;11.80;99.90;;;;;;5039960;28;20768;-79
2022/05/10 02:25:35;;;;;;;15.18;5.80;;;11.90;99.90;;;;;;5009271;28;20065;-80
2022/05/10 02:28:12;;;;;;;18.52;5.93;;;11.90;99.90;;;;;;5040271;28;20073;-80
2022/05/10 02:30:38;;;;;;;12.10;5.80;;;11.90;99.90;;;;;;5038786;28;20210;-80
2022/05/10 02:33:08;;;;;;;16.92;6.25;;;11.90;99.90;;;;;;5008503;28;20148;-80
2022/05/10 02:35:36;;;;;;;22.13;6.50;;;11.90;99.90;;;;;;5040490;28;20074;-79
2022/05/10 02:38:04;;;;;;;16.70;6.30;;;11.90;99.90;;;;;;5039447;28;20375;-80
2022/05/10 02:40:30;;;;;;;27.75;7.10;;;12.00;99.90;;;;;;5009043;28;20054;-80
2022/05/10 02:42:56;;;;;;;15.07;6.20;;;12.00;99.90;;;;;;5039110;28;20072;-80
2022/05/10 02:45:22;;;;;;;14.18;7.07;;;12.00;99.90;;;;;;5039535;28;20050;-80
2022/05/10 02:47:49;;;;;;;13.70;6.32;;;12.20;99.90;;;;;;5039360;28;20057;-80
2022/05/10 02:50:25;;;;;;;16.70;7.07;;;12.20;99.90;;;;;;5039844;28;20654;-80
2022/05/10 02:52:51;;;;;;;19.17;6.82;;;12.20;99.90;;;;;;5039811;28;20085;-80
2022/05/10 02:55:23;;;;;;;12.73;7.13;;;12.20;99.90;;;;;;5040205;28;20108;-80
2022/05/10 02:57:52;;;;;;;17.60;7.07;;;12.30;99.90;;;;;;5038987;28;20236;-79
2022/05/10 03:00:21;;;;;;;19.27;6.43;;;12.30;99.90;;;;;;5039831;28;20038;-79
2022/05/10 03:02:49;;;;;;;18.55;6.65;;;12.50;99.90;;;;;;5008528;28;20129;-80
2022/05/10 03:05:15;;;;;;;19.13;7.20;;;12.40;99.90;;;;;;5039217;28;20045;-80
2022/05/10 03:07:41;;;;;;;21.77;6.10;;;12.30;99.90;;;;;;5039762;28;20107;-79
2022/05/10 03:10:08;;;;;;;15.90;6.35;;;12.50;99.90;;;;;;5039583;28;20533;-79
2022/05/10 03:12:34;;;;;;;18.02;6.88;;;12.40;99.90;;;;;;5038677;28;20324;-80
2022/05/10 03:15:00;;;;;;;12.20;6.15;;;12.40;99.90;;;;;;5039322;28;20523;-80
2022/05/10 03:17:26;;;;;;;20.25;7.18;;;12.40;99.90;;;;;;5039259;28;20100;-79
2022/05/10 03:19:52;;;;;;;16.55;6.35;;;12.40;99.90;;;;;;5038400;28;20057;-79
2022/05/10 03:22:18;;;;;;;14.73;6.80;;;12.40;99.90;;;;;;5039910;28;20042;-80
2022/05/10 03:24:44;;;;;;;15.30;6.35;;;12.40;99.90;;;;;;5022714;28;20045;-79
2022/05/10 03:27:10;;;;;;;15.30;6.47;;;12.60;99.90;;;;;;5022286;28;20532;-79
2022/05/10 03:29:38;;;;;;;19.55;7.00;;;12.50;99.90;;;;;;5006063;28;20088;-79
2022/05/10 03:32:04;;;;;;;14.38;6.47;;;12.50;99.90;;;;;;5006633;28;20056;-79
2022/05/10 03:37:13;;;;;;;17.88;6.55;;;12.70;99.90;;;;;;5007911;28;20115;-79
2022/05/10 03:39:39;;;;;;;13.05;6.40;;;12.60;99.90;;;;;;5038935;28;20061;-79
2022/05/10 03:42:06;;;;;;;12.52;6.45;;;12.50;99.90;;;;;;5039375;28;20603;-79
2022/05/10 03:44:32;;;;;;;17.55;6.70;;;12.50;99.90;;;;;;5038746;28;20100;-79
2022/05/10 03:46:58;;;;;;;20.63;6.43;;;12.60;99.90;;;;;;5004636;28;20066;-79
2022/05/10 03:49:24;;;;;;;16.20;6.88;;;12.50;99.90;;;;;;5039685;28;20132;-79
2022/05/10 03:51:49;;;;;;;13.35;6.68;;;12.50;99.90;;;;;;5039221;28;20415;-80
2022/05/10 03:54:15;;;;;;;17.80;7.22;;;12.40;99.90;;;;;;5007741;28;20093;-80
2022/05/10 03:56:41;;;;;;;19.92;6.80;;;12.50;99.90;;;;;;5039189;28;20053;-79
2022/05/10 03:59:06;;;;;;;14.52;6.55;;;12.50;99.90;;;;;;5038755;28;20381;-79
2022/05/10 04:01:32;;;;;;;16.65;7.50;;;12.50;99.90;;;;;;5037174;28;20049;-79
2022/05/10 04:03:58;;;;;;;15.73;7.00;;;12.60;99.90;;;;;;5039150;28;20050;-79
2022/05/10 04:06:24;;;;;;;14.77;7.20;;;12.40;99.90;;;;;;5007439;28;20057;-79
2022/05/10 04:08:50;;;;;;;20.27;7.05;;;12.60;99.90;;;;;;5041222;28;20828;-79
2022/05/10 04:11:15;;;;;;;17.30;6.90;;;12.60;99.90;;;;;;5043099;28;20046;-80
2022/05/10 04:13:42;;;;;;;22.65;7.18;;;12.60;99.90;;;;;;5009797;28;20048;-80
2022/05/10 04:16:08;;;;;;;17.67;7.28;;;12.50;99.90;;;;;;5009751;28;20145;-79
2022/05/10 04:18:34;;;;;;;17.42;8.07;;;12.60;99.90;;;;;;5043395;28;20128;-79
2022/05/10 04:21:00;;;;;;;16.00;7.13;;;12.60;99.90;;;;;;5041770;28;20034;-80
2022/05/10 04:23:25;;;;;;;15.13;7.65;;;12.60;99.90;;;;;;5011326;28;20048;-80
2022/05/10 04:25:51;;;;;;;14.85;7.22;;;12.60;99.90;;;;;;5042130;28;20094;-81
2022/05/10 04:28:18;;;;;;;20.77;8.18;;;12.60;99.90;;;;;;5018151;28;20045;-79
2022/05/10 04:30:44;;;;;;;22.80;7.57;;;12.70;99.90;;;;;;5028470;28;20088;-80
2022/05/10 04:33:10;;;;;;;22.23;8.00;;;12.70;99.90;;;;;;5028795;28;20382;-79
2022/05/10 04:35:36;;;;;;;22.45;7.72;;;12.70;99.90;;;;;;5029934;28;20053;-80
2022/05/10 04:38:04;;;;;;;16.77;8.85;;;12.70;99.90;;;;;;5028943;28;20045;-80
2022/05/10 04:43:15;;;;;;;19.05;7.95;;;12.80;99.90;;;;;;5028665;28;20057;-80
2022/05/10 04:45:41;;;;;;;18.33;8.15;;;12.90;99.90;;;;;;5028200;28;20501;-80
2022/05/10 04:48:07;;;;;;;18.73;8.02;;;13.00;99.90;;;;;;5028613;28;20053;-80
2022/05/10 04:50:33;;;;;;;20.92;8.32;;;13.00;99.90;;;;;;5028500;28;20057;-80
2022/05/10 04:52:59;;;;;;;17.30;8.10;;;13.00;99.90;;;;;;5028664;28;20049;-80
2022/05/10 04:55:24;;;;;;;17.67;8.35;;;13.10;99.90;;;;;;5017658;28;20045;-80
2022/05/10 04:57:50;;;;;;;16.92;7.72;;;13.20;99.90;;;;;;5009457;28;20045;-80
2022/05/10 05:00:17;;;;;;;22.50;8.38;;;13.20;99.90;;;;;;5041608;28;20383;-80
2022/05/10 05:02:42;;;;;;;20.83;8.93;;;13.30;99.90;;;;;;5010649;28;20046;-80
2022/05/10 05:05:10;;;;;;;17.92;7.70;;;13.40;99.90;;;;;;5040693;28;20049;-80
2022/05/10 05:07:36;;;;;;;18.85;7.97;;;13.30;99.90;;;;;;5009226;28;20061;-81
2022/05/10 05:10:03;;;;;;;20.42;8.30;;;13.50;99.90;;;;;;5041315;28;20046;-81
2022/05/10 05:12:32;;;;;;;15.02;8.27;;;13.50;99.90;;;;;;5010082;28;20054;-81
2022/05/10 05:14:59;;;;;;;24.17;8.40;;;13.60;99.90;;;;;;5009239;28;20038;-81
2022/05/10 05:17:24;;;;;;;16.80;8.52;;;13.50;99.90;;;;;;5041248;28;20065;-80
2022/05/10 05:19:50;;;;;;;18.33;8.63;;;13.60;99.90;;;;;;5039937;28;20041;-81
2022/05/10 05:22:16;;;;;;;17.60;7.97;;;13.60;99.90;;;;;;5008304;28;20045;-81
2022/05/10 05:24:42;;;;;;;22.08;8.95;;;13.60;99.90;;;;;;5041346;28;20050;-81
2022/05/10 05:27:07;;;;;;;21.40;9.32;;;13.70;99.90;;;;;;5040869;28;20042;-81
2022/05/10 05:29:33;;;;;;;21.52;8.45;;;13.70;99.90;;;;;;5041445;28;20396;-81
2022/05/10 05:32:02;;;;;;;23.67;9.23;;;13.80;99.90;;;;;;5039889;28;20056;-81
2022/05/10 05:34:27;;;;;;;15.27;8.55;;;13.80;99.90;;;;;;5049464;28;20063;-81
2022/05/10 05:39:37;;;;;;;18.27;8.23;;;13.90;99.90;;;;;;5031474;28;20404;-81
2022/05/10 05:42:03;;;;;;;18.08;8.50;;;13.90;99.90;;;;;;5027615;28;20049;-81
2022/05/10 05:44:29;;;;;;;15.82;8.68;;;14.00;99.90;;;;;;5026802;28;20048;-81
2022/05/10 05:46:57;;;;;;;16.05;8.48;;;14.10;99.90;;;;;;5025722;28;20128;-81
2022/05/10 05:49:25;;;;;;;18.40;8.55;;;14.20;99.90;;;;;;5026728;28;20050;-81
2022/05/10 05:51:56;;;;;;;26.23;9.10;;;14.20;99.90;;;;;;5026460;28;20366;-81
2022/05/10 05:54:21;;;;;;;16.02;8.38;;;14.30;99.90;;;;;;5026874;28;20060;-81
2022/05/10 05:56:47;;;;;;;18.20;8.25;;;14.70;99.90;;;;;;5027174;28;20049;-81
2022/05/10 05:59:13;;;;;;;20.05;8.88;;;14.40;99.90;;;;;;5053984;28;20073;-81
2022/05/10 06:01:38;;;;;;;20.25;9.48;;;14.50;99.90;;;;;;5026002;28;20053;-81
2022/05/10 06:04:04;;;;;;;20.02;8.82;;;14.60;99.90;;;;;;5052041;28;20536;-80
2022/05/10 06:06:30;;;;;;;22.58;9.05;;;14.60;99.90;;;;;;5025549;28;20049;-80
2022/05/10 06:08:56;;;;;;;17.35;9.20;;;14.70;99.90;;;;;;5026706;28;20045;-80
2022/05/10 06:11:22;;;;;;;18.05;8.95;;;14.70;99.90;;;;;;5050046;28;20791;-81
2022/05/10 06:13:47;;;;;;;24.63;9.40;;;14.80;99.90;;;;;;5025985;28;20135;-80
2022/05/10 06:16:13;;;;;;;18.33;8.60;;;14.90;99.90;;;;;;5051017;28;20408;-80
2022/05/10 06:18:39;;;;;;;19.67;8.90;;;15.10;99.90;;;;;;5049706;28;20065;-81
2022/05/10 06:21:05;;;;;;;16.80;7.88;;;15.20;99.90;;;;;;5050150;28;20409;-81
2022/05/10 06:23:31;;;;;;;13.52;7.70;;;15.30;99.90;;;;;;5049994;28;20405;-81
2022/05/10 06:25:57;;;;;;;21.13;8.15;;;15.50;99.90;;;;;;4999286;28;20050;-80
2022/05/10 06:28:23;;;;;;;21.10;8.02;;;15.60;99.90;;;;;;5016725;28;20065;-80
2022/05/10 06:30:49;;;;;;;16.60;7.80;;;15.80;99.90;;;;;;4998024;28;20553;-81
2022/05/10 06:33:16;;;;;;;15.18;7.53;;;16.00;99.90;;;;;;5018018;28;20541;-80
2022/05/10 06:35:44;;;;;;;19.52;7.25;;;16.30;99.90;;;;;;5016536;28;20061;-81
2022/05/10 06:38:16;;;;;;;15.55;7.43;;;16.40;99.90;;;;;;5016248;28;20144;-81
2022/05/10 06:40:43;;;;;;;16.30;6.85;;;16.70;99.90;;;;;;5051095;28;20053;-80
2022/05/10 06:43:10;;;;;;;12.25;6.13;;;16.90;99.90;;;;;;5025505;28;20049;-80
2022/05/10 06:45:36;;;;;;;11.18;6.25;;;17.00;99.90;;;;;;5025289;28;20558;-80
2022/05/10 06:48:03;;;;;;;17.40;5.93;;;17.20;99.90;;;;;;5016176;28;20065;-80
2022/05/10 06:50:30;;;;;;;19.42;6.65;;;17.40;99.90;;;;;;5017246;28;20041;-80
2022/05/10 06:52:58;;;;;;;16.48;6.20;;;17.60;99.90;;;;;;5016611;28;20494;-80
2022/05/10 06:55:25;;;;;;;12.38;5.60;;;17.80;99.90;;;;;;5046430;28;20103;-80
2022/05/10 06:57:51;;;;;;;18.33;5.72;;;18.10;99.90;;;;;;5048937;28;20414;-80
2022/05/10 07:00:18;;;;;;;17.75;5.65;;;18.20;99.90;;;;;;5004686;28;20167;-80
2022/05/10 07:02:44;;;;;;;14.77;5.30;;;18.30;99.90;;;;;;5052791;28;20136;-81
2022/05/10 07:05:12;;;;;;;15.10;5.32;;;18.50;99.90;;;;;;5024383;28;20112;-80
2022/05/10 07:07:38;;;;;;;20.08;5.95;;;18.60;99.90;;;;;;5024585;28;20045;-80
2022/05/10 07:10:08;;;;;;;13.65;5.40;;;18.60;99.90;;;;;;5023951;28;20049;-80
2022/05/10 07:12:35;;;;;;;11.20;5.22;;;18.70;99.90;;;;;;5025029;28;20049;-81
2022/05/10 07:15:01;;;;;;;12.48;5.38;;;18.70;99.90;;;;;;5024384;28;20061;-80
2022/05/10 07:17:27;;;;;;;12.73;5.10;;;18.80;99.90;;;;;;5021867;28;20053;-79
2022/05/10 07:19:53;;;;;;;7.65;4.50;;;18.80;99.90;;;;;;5023248;28;20041;-80
2022/05/10 07:22:18;;;;;;;17.05;5.05;;;18.90;99.90;;;;;;5024039;28;20038;-80
2022/05/10 07:24:44;;;;;;;14.98;4.55;;;18.90;99.90;;;;;;5023320;28;20148;-80
2022/05/10 07:27:10;;;;;;;15.07;5.07;;;19.00;99.90;;;;;;5024048;28;20050;-80
2022/05/10 07:29:35;;;;;;;13.73;4.82;;;19.00;99.90;;;;;;5025142;28;20053;-79
2022/05/10 07:32:01;;;;;;;14.20;5.20;;;19.00;99.90;;;;;;5022029;28;20059;-81
2022/05/10 07:34:27;;;;;;;16.15;5.55;;;19.10;99.90;;;;;;5025513;28;20064;-80
2022/05/10 07:36:53;;;;;;;15.63;4.97;;;19.30;99.90;;;;;;5025166;28;20057;-80
2022/05/10 07:39:20;;;;;;;15.27;5.05;;;19.40;99.90;;;;;;5022308;28;20049;-80
2022/05/10 07:41:48;;;;;;;13.80;5.40;;;19.60;99.90;;;;;;5019398;28;20061;-80
2022/05/10 07:44:14;;;;;;;14.10;4.97;;;19.80;99.90;;;;;;5023871;28;20513;-80
2022/05/10 07:46:39;;;;;;;15.75;5.25;;;19.90;99.90;;;;;;5021396;28;20049;-80
2022/05/10 07:49:05;;;;;;;15.50;5.35;;;20.10;99.90;;;;;;5006264;28;20580;-79
2022/05/10 07:51:32;;;;;;;16.23;5.07;;;20.20;99.90;;;;;;5022973;28;20500;-80
2022/05/10 07:53:58;;;;;;;12.05;4.88;;;20.30;99.90;;;;;;5024124;28;20045;-80
2022/05/10 07:56:24;;;;;;;15.52;4.65;;;20.30;99.90;;;;;;5024820;28;20041;-81
2022/05/10 07:58:51;;;;;;;12.23;4.32;;;20.30;99.90;;;;;;5023712;28;20042;-81
2022/05/10 08:01:17;;;;;;;13.98;4.53;;;20.30;99.90;;;;;;5024952;28;20064;-81
2022/05/10 08:03:43;;;;;;;8.25;4.53;;;20.30;99.90;;;;;;5025733;28;20092;-80
2022/05/10 08:06:09;;;;;;;15.30;4.13;;;20.40;99.90;;;;;;5023952;28;20172;-81
2022/05/10 08:08:35;;;;;;;18.33;4.15;;;20.40;99.90;;;;;;5054414;28;20048;-80
2022/05/10 08:11:04;;;;;;;12.55;3.90;;;20.40;99.90;;;;;;5025039;28;20037;-80
2022/05/10 08:13:32;;;;;;;13.85;4.25;;;20.50;99.90;;;;;;5022156;28;20053;-80
2022/05/10 08:15:59;;;;;;;13.05;3.85;;;20.60;99.90;;;;;;5023137;28;20107;-80
2022/05/10 08:18:25;;;;;;;18.27;4.10;;;20.70;99.90;;;;;;5055116;28;20053;-80
2022/05/10 08:20:53;;;;;;;11.18;3.50;;;20.80;99.90;;;;;;5008005;28;20064;-80
2022/05/10 08:23:22;;;;;;;12.02;3.97;;;20.90;99.90;;;;;;5007074;28;20054;-80
2022/05/10 08:25:51;;;;;;;9.23;3.55;;;20.90;99.90;;;;;;5006897;28;20057;-80
2022/05/10 08:28:16;;;;;;;9.20;3.42;;;21.00;99.90;;;;;;5038687;28;20118;-80
2022/05/10 08:30:46;;;;;;;10.68;3.90;;;21.00;99.90;;;;;;5037922;28;20529;-80
2022/05/10 08:33:16;;;;;;;13.20;3.20;;;20.90;99.90;;;;;;5038546;28;20112;-80
2022/05/10 08:35:43;;;;;;;12.40;3.53;;;20.90;99.90;;;;;;5038166;28;20046;-80
2022/05/10 08:38:09;;;;;;;18.67;3.88;;;20.90;99.90;;;;;;5006936;28;20042;-80
2022/05/10 08:40:41;;;;;;;12.43;3.35;;;20.90;99.90;;;;;;5038791;28;20382;-80
2022/05/10 08:43:10;;;;;;;;;;;20.90;99.90;;;;;;5005563;28;20108;-80
2022/05/10 08:45:41;;;;;;;17.35;3.38;;;21.00;99.90;;;;;;5021335;28;20642;-80
2022/05/10 08:48:07;;;;;;;10.07;3.00;;;21.10;99.90;;;;;;5038457;28;20481;-80
2022/05/10 08:50:33;;;;;;;11.95;3.13;;;21.20;99.90;;;;;;5021146;28;20418;-80
2022/05/10 08:53:01;;;;;;;16.10;3.60;;;21.30;99.90;;;;;;5005914;28;20060;-80
2022/05/10 08:55:30;;;;;;;13.90;3.30;;;21.40;99.90;;;;;;5010298;28;20038;-80
2022/05/10 08:58:21;;;;;;;13.43;2.97;;;21.40;99.90;;;;;;5041510;28;20053;-80
2022/05/10 09:00:53;;;;;;;15.23;3.38;;;21.40;99.90;;;;;;5009582;28;20046;-80
2022/05/10 09:03:39;;;;;;;17.98;4.10;;;21.30;99.90;;;;;;5008217;28;20176;-80
2022/05/10 09:06:20;;;;;;;16.40;3.67;;;21.30;99.90;;;;;;5041526;28;20050;-81
2022/05/10 09:08:54;;;;;;;21.67;3.33;;;21.30;99.90;;;;;;5041608;28;20042;-80
2022/05/10 09:11:21;;;;;;;22.27;4.20;;;21.30;99.90;;;;;;5008207;28;20137;-79
2022/05/10 09:13:47;;;;;;;13.02;3.55;;;21.30;99.90;;;;;;5041915;28;20050;-80
2022/05/10 09:16:14;;;;;;;11.05;3.38;;;21.40;99.90;;;;;;5041202;28;20489;-80
2022/05/10 09:18:49;;;;;;;12.75;3.20;;;21.40;99.90;;;;;;5041329;28;20752;-80
2022/05/10 09:21:25;;;;;;;10.30;3.30;;;21.40;99.90;;;;;;5010182;28;20057;-79
2022/05/10 09:23:55;;;;;;;6.50;3.10;;;21.40;99.90;;;;;;5040966;28;20590;-80
2022/05/10 09:26:24;;;;;;;7.18;3.00;;;21.40;99.90;;;;;;5041712;28;20462;-80
2022/05/10 09:29:01;;;;;;;17.60;3.65;;;21.40;99.90;;;;;;5009799;28;20140;-80
2022/05/10 09:37:31;;;;;;;13.40;2.92;;;21.60;99.90;;;;;;5040821;28;19975;-80
2022/05/10 09:39:56;;;;;;;23.58;3.03;;;21.90;99.90;;;;;;5008656;28;20049;-79
2022/05/10 09:42:34;;;;;;;11.52;3.55;;;22.00;99.90;;;;;;4991939;28;20069;-80
2022/05/10 09:45:12;;;;;;;18.65;3.60;;;22.10;99.90;;;;;;5007151;28;20069;-81
2022/05/10 09:47:38;;;;;;;18.23;4.32;;;22.20;99.90;;;;;;5007811;28;20057;-80
2022/05/10 09:50:14;;;;;;;15.77;3.95;;;22.30;99.90;;;;;;5007217;28;20125;-80
2022/05/10 09:52:40;;;;;;;15.60;3.28;;;22.40;99.90;;;;;;5007628;28;20042;-80
2022/05/10 09:55:12;;;;;;;13.02;3.20;;;22.60;99.90;;;;;;5008725;28;20635;-80
2022/05/10 09:57:39;;;;;;;19.33;4.38;;;22.80;99.90;;;;;;5008397;28;20124;-80
2022/05/10 10:00:11;;;;;;;15.07;3.55;;;23.00;99.90;;;;;;5023268;28;20172;-80
2022/05/10 10:02:39;;;;;;;16.52;3.92;;;23.20;99.90;;;;;;5007372;28;20111;-80
2022/05/10 10:05:24;;;;;;;19.08;4.13;;;23.30;99.90;;;;;;5006938;28;20072;-80
2022/05/10 10:07:53;;;;;;;19.65;4.03;;;23.20;99.90;;;;;;5006580;28;20124;-80
2022/05/10 10:10:28;;;;;;;28.30;4.28;;;23.00;99.90;;;;;;5007880;28;20053;-80
2022/05/10 10:12:54;;;;;;;19.60;3.78;;;22.80;99.90;;;;;;5006612;28;20056;-80
2022/05/10 10:15:31;;;;;;;9.48;4.10;;;22.70;99.90;;;;;;5006541;28;20042;-80
2022/05/10 10:18:01;;;;;;;13.88;4.00;;;22.60;99.90;;;;;;5007068;28;20060;-80
2022/05/10 10:20:38;;;;;;;16.00;3.88;;;22.50;99.90;;;;;;5007205;28;20053;-80
2022/05/10 10:23:17;;;;;;;15.65;4.60;;;22.50;99.90;;;;;;5007429;28;20124;-80
2022/05/10 10:25:45;;;;;;;17.48;4.30;;;22.60;99.90;;;;;;5040003;28;20050;-80
2022/05/10 10:28:29;;;;;;;14.85;4.50;;;22.70;99.90;;;;;;5040151;28;20050;-80
2022/05/10 10:31:02;;;;;;;12.45;4.13;;;22.80;99.90;;;;;;5039364;28;20053;-80
2022/05/10 10:33:42;;;;;;;15.20;4.35;;;23.00;99.90;;;;;;5040441;28;20042;-80
2022/05/10 10:36:16;;;;;;;19.70;4.22;;;23.10;99.90;;;;;;5007735;28;20064;-80
2022/05/10 10:39:04;;;;;;;18.52;4.40;;;23.20;99.90;;;;;;5006864;28;20041;-80
2022/05/10 10:41:42;;;;;;;14.27;4.30;;;23.20;99.90;;;;;;5039454;28;20045;-80
2022/05/10 10:44:13;;;;;;;12.88;3.95;;;23.30;99.90;;;;;;5006751;28;20088;-81
2022/05/10 10:46:53;;;;;;;11.77;3.47;;;23.30;99.90;;;;;;5054320;28;20045;-80
2022/05/10 10:49:27;;;;;;;12.85;3.92;;;23.30;99.90;;;;;;5026624;28;20063;-80
2022/05/10 10:51:53;;;;;;;12.63;4.45;;;23.30;99.90;;;;;;5025882;28;20519;-80
2022/05/10 10:54:24;;;;;;;13.80;4.50;;;23.40;99.90;;;;;;5025320;28;20052;-81
2022/05/10 10:57:27;;;;;;;11.15;3.90;;;23.30;99.90;;;;;;5026728;28;20092;-80
2022/05/10 11:00:05;;;;;;;9.77;4.30;;;23.30;99.90;;;;;;5024449;28;20073;-80
2022/05/10 11:02:49;;;;;;;14.38;4.38;;;23.20;99.90;;;;;;5025302;28;20106;-81
2022/05/10 11:05:19;;;;;;;17.83;4.68;;;23.10;99.90;;;;;;5025912;28;20118;-80
2022/05/10 11:08:08;;;;;;;25.25;4.90;;;22.90;99.90;;;;;;5020080;28;20099;-81
2022/05/10 11:10:52;;;;;;;17.92;4.60;;;22.80;99.90;;;;;;5026506;28;20865;-80
2022/05/10 11:13:19;;;;;;;12.82;4.40;;;22.60;99.90;;;;;;5026676;28;20363;-80
2022/05/10 11:15:59;;;;;;;17.75;4.88;;;22.50;99.90;;;;;;5024711;28;20045;-80
2022/05/10 11:18:50;;;;;;;16.27;5.00;;;22.40;99.90;;;;;;5025849;28;20045;-81
2022/05/10 11:21:32;;;;;;;18.00;4.60;;;22.20;99.90;;;;;;5009775;28;20107;-80
2022/05/10 11:24:12;;;;;;;28.90;3.72;;;22.20;99.90;;;;;;5025474;28;20128;-81
2022/05/10 11:27:02;;;;;;;15.38;3.40;;;22.20;99.90;;;;;;5058657;28;20081;-80
2022/05/10 11:29:54;;;;;;;12.32;3.35;;;22.20;99.90;;;;;;5011992;28;20038;-80
2022/05/10 11:32:40;;;;;;;12.07;2.70;;;22.30;99.90;;;;;;5017246;28;20054;-80
2022/05/10 11:35:19;;;;;;;16.45;3.28;;;22.40;99.90;;;;;;5047466;28;20061;-81
2022/05/10 11:38:01;;;;;;;13.73;2.95;;;22.60;99.90;;;;;;5024244;28;20049;-80
2022/05/10 11:40:45;;;;;;;7.50;2.55;;;22.70;99.90;;;;;;5025362;28;20076;-80
2022/05/10 11:43:55;;;;;;;13.35;2.55;;;22.90;99.90;;;;;;5027690;28;20095;-80
2022/05/10 11:46:41;;;;;;;12.73;2.55;;;23.00;99.90;;;;;;5023824;28;20055;-80
2022/05/10 11:49:22;;;;;;;14.27;2.83;;;23.00;99.90;;;;;;5007655;28;20069;-80
2022/05/10 11:51:53;;;;;;;16.17;2.45;;;23.20;99.90;;;;;;5025919;28;20044;-80
2022/05/10 11:54:50;;;;;;;13.98;2.47;;;23.40;99.90;;;;;;5025391;28;20045;-81
2022/05/10 11:57:18;;;;;;;16.73;2.45;;;23.40;99.90;;;;;;5025393;28;20049;-80
2022/05/10 11:59:45;;;;;;;13.18;2.55;;;23.30;99.90;;;;;;5024993;28;20048;-81
2022/05/10 12:02:43;;;;;;;19.52;4.15;;;23.10;99.90;;;;;;5027029;28;20045;-81
2022/05/10 12:05:13;;;;;;;15.05;3.38;;;23.00;99.90;;;;;;5024331;28;20079;-81
2022/05/10 12:07:45;;;;;;;11.48;3.45;;;23.00;99.90;;;;;;5026536;28;20438;-80
2022/05/10 12:10:30;;;;;;;;;;;23.00;99.90;;;;;;5025557;28;20145;-80
2022/05/10 12:12:58;;;;;;;10.85;3.60;;;23.20;99.90;;;;;;5013193;28;19971;-80
2022/05/10 12:21:19;;;;;;;19.65;5.32;;;23.60;99.90;;;;;;5023852;28;20660;-82
2022/05/10 12:24:11;;;;;;;11.77;4.90;;;23.60;99.90;;;;;;5026072;28;20423;-81
2022/05/10 12:26:47;;;;;;;16.23;4.57;;;23.60;99.90;;;;;;5024143;28;20434;-81
2022/05/10 12:29:31;;;;;;;12.48;5.03;;;23.60;99.90;;;;;;5022533;28;20455;-81
2022/05/10 12:32:03;;;;;;;21.38;5.50;;;23.60;99.90;;;;;;5025819;28;20057;-81
2022/05/10 12:34:54;;;;;;;15.73;4.95;;;23.70;99.90;;;;;;5025557;28;20094;-81
2022/05/10 12:37:29;;;;;;;18.67;5.30;;;23.60;99.90;;;;;;5029761;28;20049;-81
2022/05/10 12:40:00;;;;;;;18.73;4.75;;;23.60;99.90;;;;;;5030234;28;20045;-81
2022/05/10 12:42:39;;;;;;;19.45;5.00;;;23.60;99.90;;;;;;5029542;28;20045;-81
2022/05/10 12:45:37;;;;;;;31.35;4.95;;;23.50;99.90;;;;;;5027176;28;20041;-81
2022/05/10 12:48:23;;;;;;;11.20;3.92;;;23.50;99.90;;;;;;5055810;28;20095;-81
2022/05/10 12:51:10;;;;;;;15.10;4.75;;;23.30;99.90;;;;;;5026586;28;20103;-80
2022/05/10 12:53:56;;;;;;;11.00;4.00;;;23.20;99.90;;;;;;5012498;28;20128;-81
2022/05/10 12:56:25;;;;;;;11.30;3.60;;;23.10;99.90;;;;;;5027119;28;20084;-81
2022/05/10 12:58:54;;;;;;;15.98;4.07;;;23.00;99.90;;;;;;5011981;28;20156;-81
2022/05/10 13:01:23;;;;;;;13.55;3.70;;;22.90;99.90;;;;;;5027469;28;20041;-81
2022/05/10 13:03:54;;;;;;;18.25;3.83;;;22.90;99.90;;;;;;5028001;28;20115;-81
2022/05/10 13:06:35;;;;;;;22.38;4.07;;;22.80;99.90;;;;;;5028146;28;20049;-81
2022/05/10 13:09:04;;;;;;;12.15;2.70;;;22.70;99.90;;;;;;5027487;28;20140;-81
2022/05/10 13:11:38;;;;;;;19.20;2.78;;;22.80;99.90;;;;;;5028379;28;20049;-81
2022/05/10 13:14:05;;;;;;;21.70;2.70;;;22.70;99.90;;;;;;5027854;28;20048;-81
2022/05/10 13:16:31;;;;;;;12.73;2.20;;;22.70;99.90;;;;;;5027018;28;20413;-81